Melton Hill Observed Data For Previous 48 Hours

Caption
Day and Hour Reservoir Elevation (behind dam)* Tailwater Elevation (below dam)* Average Hourly Discharge*
1/16/2018 2 AM EST 794.06 736.64 0
1/16/2018 3 AM EST 794.08 736.72 0
1/16/2018 4 AM EST 794.19 736.78 0
1/16/2018 5 AM EST 794.25 736.75 0
1/16/2018 6 AM EST 794.27 736.85 0
1/16/2018 7 AM EST 794.17 737.60 388
1/16/2018 8 AM EST 794.23 737.92 6,595
1/16/2018 9 AM EST 794.19 737.91 6,637
1/16/2018 10 AM EST 794.22 737.72 6,644
1/16/2018 11 AM EST 794.11 737.55 6,642
1/16/2018 12 PM EST 794.10 737.53 6,634
1/16/2018 1 PM EST 794.22 736.12 255
1/16/2018 2 PM EST 794.27 736.29 0
1/16/2018 3 PM EST 794.32 736.86 0
1/16/2018 4 PM EST 794.43 737.08 0
1/16/2018 5 PM EST 794.48 736.92 0
1/16/2018 6 PM EST 794.34 737.80 3,258
1/16/2018 7 PM EST 794.25 738.01 6,634
1/16/2018 8 PM EST 794.29 737.94 6,650
1/16/2018 9 PM EST 794.20 737.76 6,655
1/16/2018 10 PM EST 794.18 737.71 6,647
1/16/2018 11 PM EST 794.08 737.63 6,652
1/17/2018 12 AM EST 794.07 737.54 6,656
1/17/2018 1 AM EST 794.04 737.51 6,635
1/17/2018 2 AM EST 794.15 736.23 628
1/17/2018 3 AM EST 794.19 736.26 0
1/17/2018 4 AM EST 794.03 737.50 440
1/17/2018 5 AM EST 794.15 738.03 6,633
1/17/2018 6 AM EST 794.10 737.95 6,617
1/17/2018 7 AM EST 794.15 737.76 6,631
1/17/2018 8 AM EST 794.04 737.64 6,627
1/17/2018 9 AM EST 794.03 737.64 6,611
1/17/2018 10 AM EST 793.99 737.59 6,605
1/17/2018 11 AM EST 793.98 737.53 6,607
1/17/2018 12 PM EST 793.95 737.49 6,618
1/17/2018 1 PM EST 794.04 736.17 594
1/17/2018 2 PM EST 794.09 736.30 0
1/17/2018 3 PM EST 794.12 736.78 0
1/17/2018 4 PM EST 794.24 737.02 0
1/17/2018 5 PM EST 794.30 736.84 0
1/17/2018 6 PM EST 794.19 737.60 442
1/17/2018 7 PM EST 794.21 737.97 6,645
1/17/2018 8 PM EST 794.15 737.96 6,641
1/17/2018 9 PM EST 794.16 737.78 6,639
1/17/2018 10 PM EST 794.04 737.63 6,644
1/17/2018 11 PM EST 793.97 737.55 6,643
1/18/2018 12 AM EST 794.00 736.10 532
1/18/2018 1 AM EST 794.00 736.20 0
1/18/2018 2 AM EST 794.05 736.83 0
1/18/2018 3 AM EST 794.20 737.11 0
1/18/2018 4 AM EST 794.07 737.57 402
1/18/2018 5 AM EST 794.11 737.82 6,605
1/18/2018 6 AM EST 794.05 737.78 6,630

Elevations are in feet above sea level. Discharges are in cubic feet per second and are reported at the end of the hour.